sensor_id;sensor_type;location;lat;lon;timestamp;P1;durP1;ratioP1;P2;durP2;ratioP2
16524;SDS011;8375;33.594;-117.718;2023-03-21T00:01:04;1.90;;;1.00;;
16524;SDS011;8375;33.594;-117.718;2023-03-21T00:03:35;1.53;;;0.70;;
16524;SDS011;8375;33.594;-117.718;2023-03-21T00:06:07;1.10;;;0.87;;
16524;SDS011;8375;33.594;-117.718;2023-03-21T00:08:37;1.83;;;0.97;;
16524;SDS011;8375;33.594;-117.718;2023-03-21T00:11:07;2.53;;;1.10;;
16524;SDS011;8375;33.594;-117.718;2023-03-21T00:13:37;1.03;;;0.70;;
16524;SDS011;8375;33.594;-117.718;2023-03-21T00:16:08;2.73;;;0.90;;
16524;SDS011;8375;33.594;-117.718;2023-03-21T00:18:42;1.77;;;0.80;;
16524;SDS011;8375;33.594;-117.718;2023-03-21T00:21:13;1.87;;;0.93;;
16524;SDS011;8375;33.594;-117.718;2023-03-21T00:23:44;1.00;;;0.70;;
16524;SDS011;8375;33.594;-117.718;2023-03-21T00:26:13;1.27;;;0.70;;
16524;SDS011;8375;33.594;-117.718;2023-03-21T00:28:42;1.70;;;0.80;;
16524;SDS011;8375;33.594;-117.718;2023-03-21T00:31:11;2.73;;;1.00;;
16524;SDS011;8375;33.594;-117.718;2023-03-21T00:33:43;2.03;;;0.87;;
16524;SDS011;8375;33.594;-117.718;2023-03-21T00:36:12;6.03;;;1.13;;
16524;SDS011;8375;33.594;-117.718;2023-03-21T00:38:41;2.13;;;0.90;;
16524;SDS011;8375;33.594;-117.718;2023-03-21T00:41:11;4.03;;;1.10;;
16524;SDS011;8375;33.594;-117.718;2023-03-21T00:43:41;2.43;;;0.90;;
16524;SDS011;8375;33.594;-117.718;2023-03-21T00:46:13;2.30;;;0.80;;
16524;SDS011;8375;33.594;-117.718;2023-03-21T00:48:44;2.13;;;0.90;;
16524;SDS011;8375;33.594;-117.718;2023-03-21T00:51:13;0.77;;;0.77;;
16524;SDS011;8375;33.594;-117.718;2023-03-21T00:53:53;2.63;;;1.00;;
16524;SDS011;8375;33.594;-117.718;2023-03-21T00:56:26;4.53;;;1.00;;
16524;SDS011;8375;33.594;-117.718;2023-03-21T00:58:56;6.37;;;1.07;;
16524;SDS011;8375;33.594;-117.718;2023-03-21T01:01:28;3.27;;;1.20;;
16524;SDS011;8375;33.594;-117.718;2023-03-21T01:04:00;3.10;;;1.20;;
16524;SDS011;8375;33.594;-117.718;2023-03-21T01:06:34;4.40;;;1.10;;
16524;SDS011;8375;33.594;-117.718;2023-03-21T01:09:10;4.30;;;1.17;;
16524;SDS011;8375;33.594;-117.718;2023-03-21T01:11:43;6.00;;;1.40;;
16524;SDS011;8375;33.594;-117.718;2023-03-21T01:14:16;4.20;;;1.00;;
16524;SDS011;8375;33.594;-117.718;2023-03-21T01:16:46;5.63;;;1.30;;
16524;SDS011;8375;33.594;-117.718;2023-03-21T01:19:17;4.37;;;1.23;;
16524;SDS011;8375;33.594;-117.718;2023-03-21T01:21:50;1.33;;;1.20;;
16524;SDS011;8375;33.594;-117.718;2023-03-21T01:24:24;3.40;;;1.30;;
16524;SDS011;8375;33.594;-117.718;2023-03-21T01:26:57;1.33;;;1.10;;
16524;SDS011;8375;33.594;-117.718;2023-03-21T01:29:26;2.63;;;1.10;;
16524;SDS011;8375;33.594;-117.718;2023-03-21T01:31:55;4.13;;;1.33;;
16524;SDS011;8375;33.594;-117.718;2023-03-21T01:34:28;3.00;;;1.13;;
16524;SDS011;8375;33.594;-117.718;2023-03-21T01:36:57;2.87;;;1.17;;
16524;SDS011;8375;33.594;-117.718;2023-03-21T01:39:27;2.80;;;1.53;;
16524;SDS011;8375;33.594;-117.718;2023-03-21T01:41:59;3.07;;;1.30;;
16524;SDS011;8375;33.594;-117.718;2023-03-21T01:44:28;7.83;;;1.40;;
16524;SDS011;8375;33.594;-117.718;2023-03-21T01:46:57;3.73;;;1.30;;
16524;SDS011;8375;33.594;-117.718;2023-03-21T01:49:29;2.40;;;1.20;;
16524;SDS011;8375;33.594;-117.718;2023-03-21T01:52:01;4.00;;;1.97;;
16524;SDS011;8375;33.594;-117.718;2023-03-21T01:54:33;4.47;;;1.90;;
16524;SDS011;8375;33.594;-117.718;2023-03-21T01:57:15;5.63;;;2.00;;
16524;SDS011;8375;33.594;-117.718;2023-03-21T01:59:58;4.50;;;1.17;;
16524;SDS011;8375;33.594;-117.718;2023-03-21T02:02:48;2.43;;;1.20;;
16524;SDS011;8375;33.594;-117.718;2023-03-21T02:05:23;4.83;;;1.53;;
16524;SDS011;8375;33.594;-117.718;2023-03-21T02:07:59;5.07;;;1.37;;
16524;SDS011;8375;33.594;-117.718;2023-03-21T02:10:32;4.57;;;1.70;;
16524;SDS011;8375;33.594;-117.718;2023-03-21T02:13:02;5.13;;;1.60;;
16524;SDS011;8375;33.594;-117.718;2023-03-21T02:15:34;5.27;;;1.90;;
16524;SDS011;8375;33.594;-117.718;2023-03-21T02:18:07;3.97;;;1.50;;
16524;SDS011;8375;33.594;-117.718;2023-03-21T02:20:51;6.50;;;1.80;;
16524;SDS011;8375;33.594;-117.718;2023-03-21T02:24:05;5.83;;;1.60;;
16524;SDS011;8375;33.594;-117.718;2023-03-21T02:29:55;6.73;;;1.97;;
16524;SDS011;8375;33.594;-117.718;2023-03-21T02:32:46;5.03;;;1.73;;
16524;SDS011;8375;33.594;-117.718;2023-03-21T02:35:41;5.77;;;1.67;;
16524;SDS011;8375;33.594;-117.718;2023-03-21T02:38:29;4.93;;;1.40;;
16524;SDS011;8375;33.594;-117.718;2023-03-21T02:41:02;5.50;;;1.67;;
16524;SDS011;8375;33.594;-117.718;2023-03-21T02:43:53;6.03;;;1.83;;
16524;SDS011;8375;33.594;-117.718;2023-03-21T02:46:48;5.37;;;1.80;;
16524;SDS011;8375;33.594;-117.718;2023-03-21T02:49:20;7.13;;;1.70;;
16524;SDS011;8375;33.594;-117.718;2023-03-21T02:51:56;4.60;;;1.73;;
16524;SDS011;8375;33.594;-117.718;2023-03-21T02:54:29;4.63;;;2.40;;
16524;SDS011;8375;33.594;-117.718;2023-03-21T02:57:00;8.27;;;2.00;;
16524;SDS011;8375;33.594;-117.718;2023-03-21T02:59:30;6.90;;;1.40;;
16524;SDS011;8375;33.594;-117.718;2023-03-21T03:02:01;5.27;;;1.47;;
16524;SDS011;8375;33.594;-117.718;2023-03-21T03:04:31;6.63;;;1.73;;
16524;SDS011;8375;33.594;-117.718;2023-03-21T03:07:04;8.90;;;2.17;;
16524;SDS011;8375;33.594;-117.718;2023-03-21T03:10:01;4.50;;;1.53;;
16524;SDS011;8375;33.594;-117.718;2023-03-21T03:12:44;5.37;;;1.83;;
16524;SDS011;8375;33.594;-117.718;2023-03-21T03:15:27;8.67;;;2.10;;
16524;SDS011;8375;33.594;-117.718;2023-03-21T03:18:16;5.83;;;1.60;;
16524;SDS011;8375;33.594;-117.718;2023-03-21T03:21:01;8.73;;;2.07;;
16524;SDS011;8375;33.594;-117.718;2023-03-21T03:23:49;4.10;;;1.70;;
16524;SDS011;8375;33.594;-117.718;2023-03-21T03:26:34;6.97;;;1.93;;
16524;SDS011;8375;33.594;-117.718;2023-03-21T03:29:14;7.63;;;1.83;;
16524;SDS011;8375;33.594;-117.718;2023-03-21T03:31:46;10.50;;;2.37;;
16524;SDS011;8375;33.594;-117.718;2023-03-21T03:34:19;8.67;;;2.10;;
16524;SDS011;8375;33.594;-117.718;2023-03-21T03:36:53;14.20;;;2.40;;
16524;SDS011;8375;33.594;-117.718;2023-03-21T03:39:36;6.03;;;1.80;;
16524;SDS011;8375;33.594;-117.718;2023-03-21T03:42:17;8.47;;;2.00;;
16524;SDS011;8375;33.594;-117.718;2023-03-21T03:44:59;6.97;;;1.77;;
16524;SDS011;8375;33.594;-117.718;2023-03-21T03:50:31;6.67;;;1.40;;
16524;SDS011;8375;33.594;-117.718;2023-03-21T03:53:15;8.87;;;1.60;;
16524;SDS011;8375;33.594;-117.718;2023-03-21T03:55:50;6.30;;;1.60;;
16524;SDS011;8375;33.594;-117.718;2023-03-21T03:58:24;8.90;;;2.20;;
16524;SDS011;8375;33.594;-117.718;2023-03-21T04:00:57;6.43;;;1.63;;
16524;SDS011;8375;33.594;-117.718;2023-03-21T04:03:31;6.50;;;2.00;;
16524;SDS011;8375;33.594;-117.718;2023-03-21T04:06:02;7.20;;;1.70;;
16524;SDS011;8375;33.594;-117.718;2023-03-21T04:08:31;7.93;;;1.97;;
16524;SDS011;8375;33.594;-117.718;2023-03-21T04:11:02;8.53;;;1.60;;
16524;SDS011;8375;33.594;-117.718;2023-03-21T04:13:34;6.83;;;1.80;;
16524;SDS011;8375;33.594;-117.718;2023-03-21T04:16:02;7.80;;;1.70;;
16524;SDS011;8375;33.594;-117.718;2023-03-21T04:18:32;6.97;;;1.93;;
16524;SDS011;8375;33.594;-117.718;2023-03-21T04:21:05;6.73;;;2.00;;
16524;SDS011;8375;33.594;-117.718;2023-03-21T04:23:39;6.93;;;1.90;;
16524;SDS011;8375;33.594;-117.718;2023-03-21T04:26:15;8.60;;;2.33;;
16524;SDS011;8375;33.594;-117.718;2023-03-21T04:28:47;5.53;;;1.57;;
16524;SDS011;8375;33.594;-117.718;2023-03-21T04:31:16;6.30;;;1.73;;
16524;SDS011;8375;33.594;-117.718;2023-03-21T04:33:45;6.27;;;1.90;;
16524;SDS011;8375;33.594;-117.718;2023-03-21T04:36:15;5.97;;;1.90;;
16524;SDS011;8375;33.594;-117.718;2023-03-21T04:38:53;11.63;;;2.20;;
16524;SDS011;8375;33.594;-117.718;2023-03-21T04:41:26;7.60;;;1.80;;
16524;SDS011;8375;33.594;-117.718;2023-03-21T04:44:00;5.77;;;1.53;;
16524;SDS011;8375;33.594;-117.718;2023-03-21T04:46:31;6.73;;;1.87;;
16524;SDS011;8375;33.594;-117.718;2023-03-21T04:49:02;6.70;;;1.80;;
16524;SDS011;8375;33.594;-117.718;2023-03-21T04:51:32;6.20;;;2.43;;
16524;SDS011;8375;33.594;-117.718;2023-03-21T04:54:02;5.53;;;1.83;;
16524;SDS011;8375;33.594;-117.718;2023-03-21T04:56:31;8.63;;;2.10;;
16524;SDS011;8375;33.594;-117.718;2023-03-21T04:59:06;4.93;;;1.40;;
16524;SDS011;8375;33.594;-117.718;2023-03-21T05:01:46;7.17;;;1.67;;
16524;SDS011;8375;33.594;-117.718;2023-03-21T05:04:15;9.20;;;2.23;;
16524;SDS011;8375;33.594;-117.718;2023-03-21T05:06:45;5.70;;;1.40;;
16524;SDS011;8375;33.594;-117.718;2023-03-21T05:09:16;6.03;;;1.60;;
16524;SDS011;8375;33.594;-117.718;2023-03-21T05:11:45;6.77;;;1.60;;
16524;SDS011;8375;33.594;-117.718;2023-03-21T05:14:18;11.63;;;1.73;;
16524;SDS011;8375;33.594;-117.718;2023-03-21T05:16:48;7.93;;;2.10;;
16524;SDS011;8375;33.594;-117.718;2023-03-21T05:19:21;5.60;;;1.70;;
16524;SDS011;8375;33.594;-117.718;2023-03-21T05:22:01;9.13;;;1.90;;
16524;SDS011;8375;33.594;-117.718;2023-03-21T05:24:31;7.43;;;1.70;;
16524;SDS011;8375;33.594;-117.718;2023-03-21T05:27:02;6.00;;;2.00;;
16524;SDS011;8375;33.594;-117.718;2023-03-21T05:29:32;7.03;;;2.13;;
16524;SDS011;8375;33.594;-117.718;2023-03-21T05:32:01;4.53;;;1.40;;
16524;SDS011;8375;33.594;-117.718;2023-03-21T05:34:31;8.63;;;1.93;;
16524;SDS011;8375;33.594;-117.718;2023-03-21T05:37:01;7.07;;;1.70;;
16524;SDS011;8375;33.594;-117.718;2023-03-21T05:39:30;5.17;;;1.90;;
16524;SDS011;8375;33.594;-117.718;2023-03-21T05:42:00;6.30;;;2.40;;
16524;SDS011;8375;33.594;-117.718;2023-03-21T05:44:30;4.53;;;1.47;;
16524;SDS011;8375;33.594;-117.718;2023-03-21T05:47:01;6.30;;;1.70;;
16524;SDS011;8375;33.594;-117.718;2023-03-21T05:49:31;7.43;;;1.30;;
16524;SDS011;8375;33.594;-117.718;2023-03-21T05:52:02;11.00;;;1.87;;
16524;SDS011;8375;33.594;-117.718;2023-03-21T05:54:32;8.90;;;1.80;;
16524;SDS011;8375;33.594;-117.718;2023-03-21T05:57:03;6.93;;;2.10;;
16524;SDS011;8375;33.594;-117.718;2023-03-21T05:59:35;5.23;;;1.73;;
16524;SDS011;8375;33.594;-117.718;2023-03-21T06:02:05;3.93;;;1.53;;
16524;SDS011;8375;33.594;-117.718;2023-03-21T06:04:34;4.43;;;1.40;;
16524;SDS011;8375;33.594;-117.718;2023-03-21T06:07:03;6.27;;;1.70;;
16524;SDS011;8375;33.594;-117.718;2023-03-21T06:09:32;5.00;;;1.77;;
16524;SDS011;8375;33.594;-117.718;2023-03-21T06:12:08;4.53;;;1.40;;
16524;SDS011;8375;33.594;-117.718;2023-03-21T06:14:41;6.70;;;1.67;;
16524;SDS011;8375;33.594;-117.718;2023-03-21T06:17:19;7.23;;;1.93;;
16524;SDS011;8375;33.594;-117.718;2023-03-21T06:19:48;14.37;;;2.23;;
16524;SDS011;8375;33.594;-117.718;2023-03-21T06:22:16;7.80;;;1.80;;
16524;SDS011;8375;33.594;-117.718;2023-03-21T06:24:45;5.97;;;1.80;;
16524;SDS011;8375;33.594;-117.718;2023-03-21T06:27:14;9.53;;;2.30;;
16524;SDS011;8375;33.594;-117.718;2023-03-21T06:29:45;11.03;;;2.10;;
16524;SDS011;8375;33.594;-117.718;2023-03-21T06:32:13;4.60;;;1.50;;
16524;SDS011;8375;33.594;-117.718;2023-03-21T06:34:42;9.23;;;1.90;;
16524;SDS011;8375;33.594;-117.718;2023-03-21T06:37:11;7.57;;;1.80;;
16524;SDS011;8375;33.594;-117.718;2023-03-21T06:39:40;7.27;;;2.00;;
16524;SDS011;8375;33.594;-117.718;2023-03-21T06:42:09;9.53;;;2.00;;
16524;SDS011;8375;33.594;-117.718;2023-03-21T06:44:38;7.60;;;1.93;;
16524;SDS011;8375;33.594;-117.718;2023-03-21T06:47:08;6.07;;;1.77;;
16524;SDS011;8375;33.594;-117.718;2023-03-21T06:49:37;8.00;;;2.40;;
16524;SDS011;8375;33.594;-117.718;2023-03-21T06:52:08;8.97;;;2.27;;
16524;SDS011;8375;33.594;-117.718;2023-03-21T06:54:37;6.90;;;2.40;;
16524;SDS011;8375;33.594;-117.718;2023-03-21T06:57:06;8.47;;;2.50;;
16524;SDS011;8375;33.594;-117.718;2023-03-21T06:59:35;9.90;;;2.70;;
16524;SDS011;8375;33.594;-117.718;2023-03-21T07:02:06;9.00;;;2.60;;
16524;SDS011;8375;33.594;-117.718;2023-03-21T07:04:37;6.60;;;2.03;;
16524;SDS011;8375;33.594;-117.718;2023-03-21T07:07:06;7.03;;;2.40;;
16524;SDS011;8375;33.594;-117.718;2023-03-21T07:09:35;8.33;;;2.60;;
16524;SDS011;8375;33.594;-117.718;2023-03-21T07:12:04;11.83;;;2.70;;
16524;SDS011;8375;33.594;-117.718;2023-03-21T07:14:33;8.93;;;2.27;;
16524;SDS011;8375;33.594;-117.718;2023-03-21T07:17:02;10.00;;;2.60;;
16524;SDS011;8375;33.594;-117.718;2023-03-21T07:19:32;11.67;;;2.50;;
16524;SDS011;8375;33.594;-117.718;2023-03-21T07:22:01;6.93;;;2.57;;
16524;SDS011;8375;33.594;-117.718;2023-03-21T07:24:32;3.33;;;1.70;;
16524;SDS011;8375;33.594;-117.718;2023-03-21T07:27:01;8.47;;;3.00;;
16524;SDS011;8375;33.594;-117.718;2023-03-21T07:29:30;7.63;;;2.87;;
16524;SDS011;8375;33.594;-117.718;2023-03-21T07:31:58;5.40;;;2.13;;
16524;SDS011;8375;33.594;-117.718;2023-03-21T07:34:27;11.67;;;2.67;;
16524;SDS011;8375;33.594;-117.718;2023-03-21T07:37:00;7.53;;;2.40;;
16524;SDS011;8375;33.594;-117.718;2023-03-21T07:39:28;6.93;;;2.43;;
16524;SDS011;8375;33.594;-117.718;2023-03-21T07:41:57;7.40;;;2.33;;
16524;SDS011;8375;33.594;-117.718;2023-03-21T07:44:27;10.23;;;2.50;;
16524;SDS011;8375;33.594;-117.718;2023-03-21T07:46:58;9.17;;;2.80;;
16524;SDS011;8375;33.594;-117.718;2023-03-21T07:49:26;8.00;;;2.47;;
16524;SDS011;8375;33.594;-117.718;2023-03-21T07:51:55;6.90;;;2.20;;
16524;SDS011;8375;33.594;-117.718;2023-03-21T07:54:26;8.30;;;3.17;;
16524;SDS011;8375;33.594;-117.718;2023-03-21T07:56:55;10.47;;;3.00;;
16524;SDS011;8375;33.594;-117.718;2023-03-21T07:59:24;11.53;;;3.00;;
16524;SDS011;8375;33.594;-117.718;2023-03-21T08:01:52;12.03;;;2.40;;
16524;SDS011;8375;33.594;-117.718;2023-03-21T08:04:21;6.47;;;2.10;;
16524;SDS011;8375;33.594;-117.718;2023-03-21T08:06:50;10.03;;;2.40;;
16524;SDS011;8375;33.594;-117.718;2023-03-21T08:09:19;9.90;;;2.60;;
16524;SDS011;8375;33.594;-117.718;2023-03-21T08:11:49;6.93;;;2.30;;
16524;SDS011;8375;33.594;-117.718;2023-03-21T08:14:18;7.57;;;2.17;;
16524;SDS011;8375;33.594;-117.718;2023-03-21T08:16:47;11.13;;;2.60;;
16524;SDS011;8375;33.594;-117.718;2023-03-21T08:19:16;5.83;;;2.37;;
16524;SDS011;8375;33.594;-117.718;2023-03-21T08:21:46;5.00;;;1.63;;
16524;SDS011;8375;33.594;-117.718;2023-03-21T08:24:17;4.30;;;1.53;;
16524;SDS011;8375;33.594;-117.718;2023-03-21T08:26:45;7.00;;;1.77;;
16524;SDS011;8375;33.594;-117.718;2023-03-21T08:29:16;5.33;;;1.80;;
16524;SDS011;8375;33.594;-117.718;2023-03-21T08:31:46;8.13;;;1.80;;
16524;SDS011;8375;33.594;-117.718;2023-03-21T08:34:14;3.80;;;1.70;;
16524;SDS011;8375;33.594;-117.718;2023-03-21T08:36:44;5.50;;;1.73;;
16524;SDS011;8375;33.594;-117.718;2023-03-21T08:39:13;4.93;;;2.07;;
16524;SDS011;8375;33.594;-117.718;2023-03-21T08:41:41;5.20;;;1.90;;
16524;SDS011;8375;33.594;-117.718;2023-03-21T08:44:10;2.90;;;1.70;;
16524;SDS011;8375;33.594;-117.718;2023-03-21T08:46:41;6.33;;;1.97;;
16524;SDS011;8375;33.594;-117.718;2023-03-21T08:49:09;6.70;;;1.70;;
16524;SDS011;8375;33.594;-117.718;2023-03-21T08:51:38;7.07;;;1.90;;
16524;SDS011;8375;33.594;-117.718;2023-03-21T08:54:15;6.70;;;1.80;;
16524;SDS011;8375;33.594;-117.718;2023-03-21T08:56:46;9.40;;;2.40;;
16524;SDS011;8375;33.594;-117.718;2023-03-21T08:59:15;4.87;;;1.63;;
16524;SDS011;8375;33.594;-117.718;2023-03-21T09:01:45;8.60;;;2.87;;
16524;SDS011;8375;33.594;-117.718;2023-03-21T09:04:14;5.40;;;2.07;;
16524;SDS011;8375;33.594;-117.718;2023-03-21T09:06:43;5.47;;;1.80;;
16524;SDS011;8375;33.594;-117.718;2023-03-21T09:09:13;6.93;;;2.40;;
16524;SDS011;8375;33.594;-117.718;2023-03-21T09:11:42;6.40;;;2.00;;
16524;SDS011;8375;33.594;-117.718;2023-03-21T09:14:11;5.10;;;1.67;;
16524;SDS011;8375;33.594;-117.718;2023-03-21T09:16:40;4.20;;;1.60;;
16524;SDS011;8375;33.594;-117.718;2023-03-21T09:19:11;5.37;;;2.00;;
16524;SDS011;8375;33.594;-117.718;2023-03-21T09:21:39;9.60;;;2.13;;
16524;SDS011;8375;33.594;-117.718;2023-03-21T09:24:08;8.70;;;2.80;;
16524;SDS011;8375;33.594;-117.718;2023-03-21T09:26:37;5.43;;;2.03;;
16524;SDS011;8375;33.594;-117.718;2023-03-21T09:29:06;4.80;;;2.17;;
16524;SDS011;8375;33.594;-117.718;2023-03-21T09:31:35;4.27;;;1.77;;
16524;SDS011;8375;33.594;-117.718;2023-03-21T09:34:04;6.53;;;2.00;;
16524;SDS011;8375;33.594;-117.718;2023-03-21T09:36:35;5.40;;;2.00;;
16524;SDS011;8375;33.594;-117.718;2023-03-21T09:39:06;7.13;;;2.00;;
16524;SDS011;8375;33.594;-117.718;2023-03-21T09:41:42;6.60;;;2.10;;
16524;SDS011;8375;33.594;-117.718;2023-03-21T09:44:28;8.50;;;2.53;;
16524;SDS011;8375;33.594;-117.718;2023-03-21T09:47:08;9.23;;;2.23;;
16524;SDS011;8375;33.594;-117.718;2023-03-21T09:49:45;11.70;;;2.53;;
16524;SDS011;8375;33.594;-117.718;2023-03-21T09:52:19;11.03;;;2.30;;
16524;SDS011;8375;33.594;-117.718;2023-03-21T09:54:50;5.57;;;2.13;;
16524;SDS011;8375;33.594;-117.718;2023-03-21T09:57:23;12.97;;;2.60;;
16524;SDS011;8375;33.594;-117.718;2023-03-21T09:59:58;8.77;;;2.47;;
16524;SDS011;8375;33.594;-117.718;2023-03-21T10:02:37;9.97;;;2.50;;
16524;SDS011;8375;33.594;-117.718;2023-03-21T10:05:13;8.60;;;2.50;;
16524;SDS011;8375;33.594;-117.718;2023-03-21T10:07:50;4.07;;;1.97;;
16524;SDS011;8375;33.594;-117.718;2023-03-21T10:10:24;7.77;;;2.30;;
16524;SDS011;8375;33.594;-117.718;2023-03-21T10:12:56;7.37;;;2.37;;
16524;SDS011;8375;33.594;-117.718;2023-03-21T10:15:25;6.00;;;2.63;;
16524;SDS011;8375;33.594;-117.718;2023-03-21T10:17:55;4.57;;;2.23;;
16524;SDS011;8375;33.594;-117.718;2023-03-21T10:20:28;7.13;;;2.27;;
16524;SDS011;8375;33.594;-117.718;2023-03-21T10:23:00;5.63;;;2.53;;
16524;SDS011;8375;33.594;-117.718;2023-03-21T10:25:32;6.00;;;2.00;;
16524;SDS011;8375;33.594;-117.718;2023-03-21T10:28:04;4.43;;;2.47;;
16524;SDS011;8375;33.594;-117.718;2023-03-21T10:30:36;9.27;;;2.43;;
16524;SDS011;8375;33.594;-117.718;2023-03-21T10:33:08;5.20;;;2.33;;
16524;SDS011;8375;33.594;-117.718;2023-03-21T10:35:40;5.77;;;2.20;;
16524;SDS011;8375;33.594;-117.718;2023-03-21T10:38:18;3.47;;;2.03;;
16524;SDS011;8375;33.594;-117.718;2023-03-21T10:40:49;7.73;;;2.23;;
16524;SDS011;8375;33.594;-117.718;2023-03-21T10:43:19;4.33;;;1.87;;
16524;SDS011;8375;33.594;-117.718;2023-03-21T10:46:04;6.67;;;2.00;;
16524;SDS011;8375;33.594;-117.718;2023-03-21T10:48:36;4.47;;;2.10;;
16524;SDS011;8375;33.594;-117.718;2023-03-21T10:51:11;4.00;;;2.20;;
16524;SDS011;8375;33.594;-117.718;2023-03-21T10:53:46;5.03;;;2.37;;
16524;SDS011;8375;33.594;-117.718;2023-03-21T10:56:21;4.87;;;2.13;;
16524;SDS011;8375;33.594;-117.718;2023-03-21T10:58:52;4.20;;;1.93;;
16524;SDS011;8375;33.594;-117.718;2023-03-21T11:01:26;4.73;;;1.93;;
16524;SDS011;8375;33.594;-117.718;2023-03-21T11:03:58;5.30;;;2.27;;
16524;SDS011;8375;33.594;-117.718;2023-03-21T11:06:33;5.37;;;1.93;;
16524;SDS011;8375;33.594;-117.718;2023-03-21T11:09:12;5.13;;;2.00;;
16524;SDS011;8375;33.594;-117.718;2023-03-21T11:11:48;4.60;;;2.10;;
16524;SDS011;8375;33.594;-117.718;2023-03-21T11:14:24;7.43;;;2.27;;
16524;SDS011;8375;33.594;-117.718;2023-03-21T11:16:59;2.97;;;1.57;;
16524;SDS011;8375;33.594;-117.718;2023-03-21T11:19:29;3.50;;;1.90;;
16524;SDS011;8375;33.594;-117.718;2023-03-21T11:22:02;3.60;;;2.03;;
16524;SDS011;8375;33.594;-117.718;2023-03-21T11:24:34;4.07;;;2.20;;
16524;SDS011;8375;33.594;-117.718;2023-03-21T11:27:05;4.67;;;1.87;;
16524;SDS011;8375;33.594;-117.718;2023-03-21T11:29:34;5.60;;;2.27;;
16524;SDS011;8375;33.594;-117.718;2023-03-21T11:32:09;2.70;;;2.00;;
16524;SDS011;8375;33.594;-117.718;2023-03-21T11:34:42;5.33;;;2.17;;
16524;SDS011;8375;33.594;-117.718;2023-03-21T11:37:18;3.00;;;2.27;;
16524;SDS011;8375;33.594;-117.718;2023-03-21T11:39:55;2.87;;;1.90;;
16524;SDS011;8375;33.594;-117.718;2023-03-21T11:42:39;6.27;;;2.50;;
16524;SDS011;8375;33.594;-117.718;2023-03-21T11:45:11;5.57;;;2.50;;
16524;SDS011;8375;33.594;-117.718;2023-03-21T11:47:42;7.10;;;2.30;;
16524;SDS011;8375;33.594;-117.718;2023-03-21T11:50:19;5.90;;;2.10;;
16524;SDS011;8375;33.594;-117.718;2023-03-21T11:52:56;4.57;;;2.50;;
16524;SDS011;8375;33.594;-117.718;2023-03-21T11:55:42;6.50;;;2.40;;
16524;SDS011;8375;33.594;-117.718;2023-03-21T11:58:27;6.83;;;2.57;;
16524;SDS011;8375;33.594;-117.718;2023-03-21T12:01:14;8.83;;;2.67;;
16524;SDS011;8375;33.594;-117.718;2023-03-21T12:03:54;6.40;;;2.50;;
16524;SDS011;8375;33.594;-117.718;2023-03-21T12:06:32;7.77;;;2.43;;
16524;SDS011;8375;33.594;-117.718;2023-03-21T12:09:08;9.33;;;2.77;;
16524;SDS011;8375;33.594;-117.718;2023-03-21T12:12:02;4.93;;;1.80;;
16524;SDS011;8375;33.594;-117.718;2023-03-21T12:14:46;6.50;;;2.60;;
16524;SDS011;8375;33.594;-117.718;2023-03-21T12:17:27;5.20;;;2.53;;
16524;SDS011;8375;33.594;-117.718;2023-03-21T12:23:00;4.90;;;2.37;;
16524;SDS011;8375;33.594;-117.718;2023-03-21T12:25:40;6.30;;;2.70;;
16524;SDS011;8375;33.594;-117.718;2023-03-21T12:28:17;5.10;;;2.70;;
16524;SDS011;8375;33.594;-117.718;2023-03-21T12:30:57;7.63;;;2.50;;
16524;SDS011;8375;33.594;-117.718;2023-03-21T12:33:37;4.20;;;2.17;;
16524;SDS011;8375;33.594;-117.718;2023-03-21T12:36:27;4.77;;;2.47;;
16524;SDS011;8375;33.594;-117.718;2023-03-21T12:39:12;6.80;;;2.53;;
16524;SDS011;8375;33.594;-117.718;2023-03-21T12:41:52;6.40;;;2.73;;
16524;SDS011;8375;33.594;-117.718;2023-03-21T12:44:33;4.83;;;2.17;;
16524;SDS011;8375;33.594;-117.718;2023-03-21T12:47:07;4.83;;;2.40;;
16524;SDS011;8375;33.594;-117.718;2023-03-21T12:49:41;4.10;;;2.20;;
16524;SDS011;8375;33.594;-117.718;2023-03-21T12:52:15;7.03;;;2.67;;
16524;SDS011;8375;33.594;-117.718;2023-03-21T12:54:49;9.07;;;2.50;;
16524;SDS011;8375;33.594;-117.718;2023-03-21T12:57:24;7.77;;;2.50;;
16524;SDS011;8375;33.594;-117.718;2023-03-21T13:00:00;5.27;;;2.67;;
16524;SDS011;8375;33.594;-117.718;2023-03-21T13:02:37;7.03;;;2.47;;
16524;SDS011;8375;33.594;-117.718;2023-03-21T13:05:14;4.93;;;2.50;;
16524;SDS011;8375;33.594;-117.718;2023-03-21T13:07:46;2.90;;;1.97;;
16524;SDS011;8375;33.594;-117.718;2023-03-21T13:10:19;5.97;;;2.33;;
16524;SDS011;8375;33.594;-117.718;2023-03-21T13:12:58;4.80;;;2.03;;
16524;SDS011;8375;33.594;-117.718;2023-03-21T13:15:46;6.07;;;2.03;;
16524;SDS011;8375;33.594;-117.718;2023-03-21T13:18:24;3.20;;;2.07;;
16524;SDS011;8375;33.594;-117.718;2023-03-21T13:21:00;6.00;;;2.27;;
16524;SDS011;8375;33.594;-117.718;2023-03-21T13:23:33;8.67;;;2.33;;
16524;SDS011;8375;33.594;-117.718;2023-03-21T13:26:03;4.83;;;2.23;;
16524;SDS011;8375;33.594;-117.718;2023-03-21T13:28:37;4.23;;;2.03;;
16524;SDS011;8375;33.594;-117.718;2023-03-21T13:31:16;4.13;;;1.83;;
16524;SDS011;8375;33.594;-117.718;2023-03-21T13:33:46;3.30;;;1.83;;
16524;SDS011;8375;33.594;-117.718;2023-03-21T13:36:21;5.73;;;2.20;;
16524;SDS011;8375;33.594;-117.718;2023-03-21T13:38:53;3.93;;;2.03;;
16524;SDS011;8375;33.594;-117.718;2023-03-21T13:41:30;2.93;;;1.70;;
16524;SDS011;8375;33.594;-117.718;2023-03-21T13:44:05;2.83;;;1.80;;
16524;SDS011;8375;33.594;-117.718;2023-03-21T13:46:44;3.80;;;1.70;;
16524;SDS011;8375;33.594;-117.718;2023-03-21T13:49:31;6.13;;;2.30;;
16524;SDS011;8375;33.594;-117.718;2023-03-21T13:52:01;4.90;;;2.00;;
16524;SDS011;8375;33.594;-117.718;2023-03-21T13:54:53;3.90;;;2.20;;
16524;SDS011;8375;33.594;-117.718;2023-03-21T14:00:17;6.33;;;2.53;;
16524;SDS011;8375;33.594;-117.718;2023-03-21T14:02:56;5.20;;;2.40;;
16524;SDS011;8375;33.594;-117.718;2023-03-21T14:05:28;5.73;;;1.90;;
16524;SDS011;8375;33.594;-117.718;2023-03-21T14:07:59;4.27;;;2.10;;
16524;SDS011;8375;33.594;-117.718;2023-03-21T14:10:32;4.30;;;2.03;;
16524;SDS011;8375;33.594;-117.718;2023-03-21T14:13:04;2.30;;;1.63;;
16524;SDS011;8375;33.594;-117.718;2023-03-21T14:15:38;6.60;;;2.10;;
16524;SDS011;8375;33.594;-117.718;2023-03-21T14:18:14;4.87;;;1.83;;
16524;SDS011;8375;33.594;-117.718;2023-03-21T14:20:50;3.77;;;1.90;;
16524;SDS011;8375;33.594;-117.718;2023-03-21T14:23:20;4.40;;;1.77;;
16524;SDS011;8375;33.594;-117.718;2023-03-21T14:25:48;5.83;;;2.30;;
16524;SDS011;8375;33.594;-117.718;2023-03-21T14:28:19;2.60;;;1.70;;
16524;SDS011;8375;33.594;-117.718;2023-03-21T14:30:51;3.47;;;1.90;;
16524;SDS011;8375;33.594;-117.718;2023-03-21T14:33:24;5.13;;;1.77;;
16524;SDS011;8375;33.594;-117.718;2023-03-21T14:35:58;3.03;;;1.67;;
16524;SDS011;8375;33.594;-117.718;2023-03-21T14:38:32;4.30;;;1.83;;
16524;SDS011;8375;33.594;-117.718;2023-03-21T14:41:02;2.83;;;1.90;;
16524;SDS011;8375;33.594;-117.718;2023-03-21T14:43:32;1.83;;;1.40;;
16524;SDS011;8375;33.594;-117.718;2023-03-21T14:46:01;3.27;;;1.70;;
16524;SDS011;8375;33.594;-117.718;2023-03-21T14:48:32;2.73;;;1.50;;
16524;SDS011;8375;33.594;-117.718;2023-03-21T14:51:01;2.27;;;1.30;;
16524;SDS011;8375;33.594;-117.718;2023-03-21T14:53:34;3.73;;;1.50;;
16524;SDS011;8375;33.594;-117.718;2023-03-21T14:56:05;3.33;;;1.60;;
16524;SDS011;8375;33.594;-117.718;2023-03-21T14:58:37;3.17;;;1.37;;
16524;SDS011;8375;33.594;-117.718;2023-03-21T15:01:11;2.80;;;1.40;;
16524;SDS011;8375;33.594;-117.718;2023-03-21T15:03:44;1.40;;;0.90;;
16524;SDS011;8375;33.594;-117.718;2023-03-21T15:06:16;1.10;;;0.63;;
16524;SDS011;8375;33.594;-117.718;2023-03-21T15:08:52;2.27;;;0.93;;